sensor_id;sensor_type;location;lat;lon;timestamp;pressure;altitude;pressure_sealevel;temperature;humidity
15568;BME280;7885;42.596;23.044;2023-05-21T00:00:41;92847.66;;;14.49;92.79
15568;BME280;7885;42.596;23.044;2023-05-21T00:03:07;92839.88;;;14.48;93.46
15568;BME280;7885;42.596;23.044;2023-05-21T00:05:38;92833.34;;;14.42;94.17
15568;BME280;7885;42.596;23.044;2023-05-21T00:08:04;92824.47;;;14.34;92.77
15568;BME280;7885;42.596;23.044;2023-05-21T00:10:31;92830.09;;;14.27;92.20
15568;BME280;7885;42.596;23.044;2023-05-21T00:12:59;92840.19;;;14.07;92.84
15568;BME280;7885;42.596;23.044;2023-05-21T00:15:26;92826.00;;;13.92;92.88
15568;BME280;7885;42.596;23.044;2023-05-21T00:17:53;92827.84;;;13.76;94.65
15568;BME280;7885;42.596;23.044;2023-05-21T00:20:19;92835.09;;;13.62;95.55
15568;BME280;7885;42.596;23.044;2023-05-21T00:22:47;92829.63;;;13.62;97.20
15568;BME280;7885;42.596;23.044;2023-05-21T00:25:14;92821.91;;;13.57;96.53
15568;BME280;7885;42.596;23.044;2023-05-21T00:27:40;92824.97;;;13.59;97.10
15568;BME280;7885;42.596;23.044;2023-05-21T00:30:09;92810.91;;;13.61;97.54
15568;BME280;7885;42.596;23.044;2023-05-21T00:32:36;92813.22;;;13.62;97.98
15568;BME280;7885;42.596;23.044;2023-05-21T00:35:03;92803.72;;;13.71;97.88
15568;BME280;7885;42.596;23.044;2023-05-21T00:37:30;92803.66;;;13.74;97.80
15568;BME280;7885;42.596;23.044;2023-05-21T00:39:58;92816.09;;;13.79;97.26
15568;BME280;7885;42.596;23.044;2023-05-21T00:42:25;92811.38;;;13.79;97.78
15568;BME280;7885;42.596;23.044;2023-05-21T00:44:54;92814.47;;;13.81;97.34
15568;BME280;7885;42.596;23.044;2023-05-21T00:47:23;92802.03;;;13.77;97.76
15568;BME280;7885;42.596;23.044;2023-05-21T00:49:51;92805.50;;;13.81;97.39
15568;BME280;7885;42.596;23.044;2023-05-21T00:52:18;92810.63;;;13.79;97.40
15568;BME280;7885;42.596;23.044;2023-05-21T00:54:48;92803.22;;;13.76;97.68
15568;BME280;7885;42.596;23.044;2023-05-21T00:57:17;92785.28;;;13.75;97.76
15568;BME280;7885;42.596;23.044;2023-05-21T00:59:45;92786.47;;;13.74;97.19
15568;BME280;7885;42.596;23.044;2023-05-21T01:02:12;92789.69;;;13.69;97.40
15568;BME280;7885;42.596;23.044;2023-05-21T01:04:44;92777.19;;;13.68;97.32
15568;BME280;7885;42.596;23.044;2023-05-21T01:07:10;92784.03;;;13.56;96.09
15568;BME280;7885;42.596;23.044;2023-05-21T01:09:37;92789.31;;;13.43;96.44
15568;BME280;7885;42.596;23.044;2023-05-21T01:12:05;92779.00;;;13.28;98.60
15568;BME280;7885;42.596;23.044;2023-05-21T01:14:34;92793.56;;;13.21;99.84
15568;BME280;7885;42.596;23.044;2023-05-21T01:17:02;92786.56;;;13.20;99.92
15568;BME280;7885;42.596;23.044;2023-05-21T01:19:30;92792.03;;;13.20;100.00
15568;BME280;7885;42.596;23.044;2023-05-21T01:22:03;92783.41;;;13.22;99.58
15568;BME280;7885;42.596;23.044;2023-05-21T01:24:32;92786.50;;;13.24;99.72
15568;BME280;7885;42.596;23.044;2023-05-21T01:27:00;92791.50;;;13.29;99.59
15568;BME280;7885;42.596;23.044;2023-05-21T01:29:27;92786.41;;;13.31;99.08
15568;BME280;7885;42.596;23.044;2023-05-21T01:32:01;92781.44;;;13.22;98.93
15568;BME280;7885;42.596;23.044;2023-05-21T01:34:35;92781.78;;;13.24;99.40
15568;BME280;7885;42.596;23.044;2023-05-21T01:37:12;92778.72;;;13.22;99.61
15568;BME280;7885;42.596;23.044;2023-05-21T01:39:43;92778.72;;;13.22;99.43
15568;BME280;7885;42.596;23.044;2023-05-21T01:42:15;92762.59;;;13.01;99.72
15568;BME280;7885;42.596;23.044;2023-05-21T01:44:43;92769.69;;;12.98;99.87
15568;BME280;7885;42.596;23.044;2023-05-21T01:47:11;92778.88;;;13.11;99.93
15568;BME280;7885;42.596;23.044;2023-05-21T01:49:39;92774.13;;;13.15;100.00
15568;BME280;7885;42.596;23.044;2023-05-21T01:52:06;92762.09;;;13.13;99.95
15568;BME280;7885;42.596;23.044;2023-05-21T01:54:33;92764.28;;;13.22;99.80
15568;BME280;7885;42.596;23.044;2023-05-21T01:57:01;92766.22;;;13.21;99.80
15568;BME280;7885;42.596;23.044;2023-05-21T01:59:28;92762.25;;;13.26;99.40
15568;BME280;7885;42.596;23.044;2023-05-21T02:01:55;92769.28;;;13.27;98.32
15568;BME280;7885;42.596;23.044;2023-05-21T02:04:22;92771.28;;;13.23;96.41
15568;BME280;7885;42.596;23.044;2023-05-21T02:06:48;92759.53;;;12.99;96.60
15568;BME280;7885;42.596;23.044;2023-05-21T02:09:15;92763.91;;;12.93;98.61
15568;BME280;7885;42.596;23.044;2023-05-21T02:11:42;92761.97;;;12.90;98.67
15568;BME280;7885;42.596;23.044;2023-05-21T02:14:10;92768.19;;;12.94;98.89
15568;BME280;7885;42.596;23.044;2023-05-21T02:16:38;92766.16;;;12.98;98.03
15568;BME280;7885;42.596;23.044;2023-05-21T02:19:06;92764.16;;;13.02;97.16
15568;BME280;7885;42.596;23.044;2023-05-21T02:21:34;92764.50;;;13.04;97.36
15568;BME280;7885;42.596;23.044;2023-05-21T02:24:01;92762.50;;;13.08;98.02
15568;BME280;7885;42.596;23.044;2023-05-21T02:26:28;92756.25;;;13.11;98.28
15568;BME280;7885;42.596;23.044;2023-05-21T02:28:55;92763.97;;;13.16;98.32
15568;BME280;7885;42.596;23.044;2023-05-21T02:31:23;92767.06;;;13.18;98.16
15568;BME280;7885;42.596;23.044;2023-05-21T02:33:50;92755.34;;;13.18;98.12
15568;BME280;7885;42.596;23.044;2023-05-21T02:36:17;92747.53;;;13.20;98.30
15568;BME280;7885;42.596;23.044;2023-05-21T02:38:43;92757.56;;;13.26;98.52
15568;BME280;7885;42.596;23.044;2023-05-21T02:41:11;92750.59;;;13.22;98.72
15568;BME280;7885;42.596;23.044;2023-05-21T02:43:37;92746.66;;;13.26;98.57
15568;BME280;7885;42.596;23.044;2023-05-21T02:46:05;92751.34;;;13.26;98.98
15568;BME280;7885;42.596;23.044;2023-05-21T02:48:33;92748.19;;;13.27;98.60
15568;BME280;7885;42.596;23.044;2023-05-21T02:51:00;92747.00;;;13.28;98.57
15568;BME280;7885;42.596;23.044;2023-05-21T02:53:26;92749.72;;;13.28;97.93
15568;BME280;7885;42.596;23.044;2023-05-21T02:55:53;92759.94;;;13.24;98.14
15568;BME280;7885;42.596;23.044;2023-05-21T02:58:20;92763.97;;;13.16;98.52
15568;BME280;7885;42.596;23.044;2023-05-21T03:00:50;92751.97;;;13.10;99.11
15568;BME280;7885;42.596;23.044;2023-05-21T03:03:17;92750.78;;;13.11;99.15
15568;BME280;7885;42.596;23.044;2023-05-21T03:05:45;92748.41;;;13.13;99.31
15568;BME280;7885;42.596;23.044;2023-05-21T03:08:12;92756.19;;;13.14;99.32
15568;BME280;7885;42.596;23.044;2023-05-21T03:10:39;92759.34;;;13.13;99.34
15568;BME280;7885;42.596;23.044;2023-05-21T03:13:05;92757.78;;;13.12;99.43
15568;BME280;7885;42.596;23.044;2023-05-21T03:15:32;92755.47;;;13.07;99.88
15568;BME280;7885;42.596;23.044;2023-05-21T03:17:59;92760.94;;;13.10;99.93
15568;BME280;7885;42.596;23.044;2023-05-21T03:20:27;92779.72;;;13.05;98.32
15568;BME280;7885;42.596;23.044;2023-05-21T03:22:56;92769.19;;;12.77;99.32
15568;BME280;7885;42.596;23.044;2023-05-21T03:25:22;92757.56;;;12.73;100.00
15568;BME280;7885;42.596;23.044;2023-05-21T03:27:50;92758.41;;;12.66;100.00
15568;BME280;7885;42.596;23.044;2023-05-21T03:30:17;92763.84;;;12.70;100.00
15568;BME280;7885;42.596;23.044;2023-05-21T03:32:44;92768.47;;;12.73;100.00
15568;BME280;7885;42.596;23.044;2023-05-21T03:35:11;92771.47;;;12.82;99.92
15568;BME280;7885;42.596;23.044;2023-05-21T03:37:37;92771.59;;;12.75;100.00
15568;BME280;7885;42.596;23.044;2023-05-21T03:40:07;92774.66;;;12.77;100.00
15568;BME280;7885;42.596;23.044;2023-05-21T03:42:34;92770.28;;;12.83;100.00
15568;BME280;7885;42.596;23.044;2023-05-21T03:45:01;92772.22;;;12.86;100.00
15568;BME280;7885;42.596;23.044;2023-05-21T03:47:28;92761.97;;;12.90;100.00
15568;BME280;7885;42.596;23.044;2023-05-21T03:49:54;92771.28;;;12.96;100.00
15568;BME280;7885;42.596;23.044;2023-05-21T03:52:21;92778.28;;;12.97;100.00
15568;BME280;7885;42.596;23.044;2023-05-21T03:54:48;92769.47;;;12.86;100.00
15568;BME280;7885;42.596;23.044;2023-05-21T03:57:16;92766.66;;;12.93;100.00
15568;BME280;7885;42.596;23.044;2023-05-21T03:59:42;92762.25;;;12.99;100.00
15568;BME280;7885;42.596;23.044;2023-05-21T04:02:09;92768.63;;;13.19;100.00
15568;BME280;7885;42.596;23.044;2023-05-21T04:04:36;92765.16;;;13.38;100.00
15568;BME280;7885;42.596;23.044;2023-05-21T04:07:03;92761.44;;;13.52;100.00
15568;BME280;7885;42.596;23.044;2023-05-21T04:09:29;92766.25;;;13.68;99.52
15568;BME280;7885;42.596;23.044;2023-05-21T04:11:56;92751.25;;;13.76;99.70
15568;BME280;7885;42.596;23.044;2023-05-21T04:14:24;92763.72;;;14.00;98.30
15568;BME280;7885;42.596;23.044;2023-05-21T04:16:51;92768.56;;;14.12;97.73
15568;BME280;7885;42.596;23.044;2023-05-21T04:19:18;92765.56;;;14.26;96.86
15568;BME280;7885;42.596;23.044;2023-05-21T04:21:44;92768.06;;;14.40;96.28
15568;BME280;7885;42.596;23.044;2023-05-21T04:24:11;92766.22;;;14.53;96.08
15568;BME280;7885;42.596;23.044;2023-05-21T04:26:38;92763.19;;;14.68;95.40
15568;BME280;7885;42.596;23.044;2023-05-21T04:29:07;92763.38;;;14.77;94.67
15568;BME280;7885;42.596;23.044;2023-05-21T04:31:35;92759.72;;;14.83;94.48
15568;BME280;7885;42.596;23.044;2023-05-21T04:34:02;92763.59;;;14.86;94.41
15568;BME280;7885;42.596;23.044;2023-05-21T04:36:29;92753.66;;;14.92;93.50
15568;BME280;7885;42.596;23.044;2023-05-21T04:38:56;92766.00;;;15.00;93.46
15568;BME280;7885;42.596;23.044;2023-05-21T04:41:22;92751.72;;;15.08;92.78
15568;BME280;7885;42.596;23.044;2023-05-21T04:43:49;92758.50;;;15.20;92.40
15568;BME280;7885;42.596;23.044;2023-05-21T04:46:19;92754.06;;;15.26;91.95
15568;BME280;7885;42.596;23.044;2023-05-21T04:48:51;92748.72;;;15.35;91.41
15568;BME280;7885;42.596;23.044;2023-05-21T04:51:19;92761.09;;;15.59;90.02
15568;BME280;7885;42.596;23.044;2023-05-21T04:53:46;92758.03;;;15.57;89.36
15568;BME280;7885;42.596;23.044;2023-05-21T04:56:15;92762.97;;;15.62;88.77
15568;BME280;7885;42.596;23.044;2023-05-21T04:58:42;92761.38;;;15.65;88.41
15568;BME280;7885;42.596;23.044;2023-05-21T05:01:09;92763.25;;;15.68;87.11
15568;BME280;7885;42.596;23.044;2023-05-21T05:03:36;92762.03;;;15.69;86.46
15568;BME280;7885;42.596;23.044;2023-05-21T05:06:05;92748.84;;;15.64;86.89
15568;BME280;7885;42.596;23.044;2023-05-21T05:08:32;92755.19;;;15.61;86.56
15568;BME280;7885;42.596;23.044;2023-05-21T05:10:59;92765.72;;;15.79;86.91
15568;BME280;7885;42.596;23.044;2023-05-21T05:13:26;92755.09;;;15.81;86.17
15568;BME280;7885;42.596;23.044;2023-05-21T05:15:52;92767.34;;;15.92;86.32
15568;BME280;7885;42.596;23.044;2023-05-21T05:18:19;92761.03;;;16.08;87.74
15568;BME280;7885;42.596;23.044;2023-05-21T05:20:46;92757.09;;;16.09;86.53
15568;BME280;7885;42.596;23.044;2023-05-21T05:26:35;92773.91;;;16.40;81.80
15568;BME280;7885;42.596;23.044;2023-05-21T05:29:02;92759.22;;;16.46;81.73
15568;BME280;7885;42.596;23.044;2023-05-21T05:31:29;92767.88;;;16.45;81.18
15568;BME280;7885;42.596;23.044;2023-05-21T05:33:55;92762.13;;;16.55;80.88
15568;BME280;7885;42.596;23.044;2023-05-21T05:36:22;92757.28;;;16.59;79.47
15568;BME280;7885;42.596;23.044;2023-05-21T05:38:50;92763.38;;;16.67;79.76
15568;BME280;7885;42.596;23.044;2023-05-21T05:41:17;92763.28;;;16.83;79.85
15568;BME280;7885;42.596;23.044;2023-05-21T05:43:45;92745.16;;;16.86;78.69
15568;BME280;7885;42.596;23.044;2023-05-21T05:46:11;92760.00;;;17.01;78.00
15568;BME280;7885;42.596;23.044;2023-05-21T05:48:38;92763.31;;;17.21;77.93
15568;BME280;7885;42.596;23.044;2023-05-21T05:51:05;92755.53;;;17.20;77.12
15568;BME280;7885;42.596;23.044;2023-05-21T05:53:32;92746.16;;;17.30;78.67
15568;BME280;7885;42.596;23.044;2023-05-21T05:55:58;92754.63;;;17.35;76.21
15568;BME280;7885;42.596;23.044;2023-05-21T05:58:25;92746.16;;;17.30;74.84
15568;BME280;7885;42.596;23.044;2023-05-21T06:00:53;92748.03;;;17.33;74.71
15568;BME280;7885;42.596;23.044;2023-05-21T06:03:20;92748.25;;;17.38;73.50
15568;BME280;7885;42.596;23.044;2023-05-21T06:05:47;92747.16;;;17.36;74.43
15568;BME280;7885;42.596;23.044;2023-05-21T06:08:14;92751.75;;;17.39;74.63
15568;BME280;7885;42.596;23.044;2023-05-21T06:10:41;92744.59;;;17.41;73.93
15568;BME280;7885;42.596;23.044;2023-05-21T06:13:07;92746.69;;;17.25;73.92
15568;BME280;7885;42.596;23.044;2023-05-21T06:15:34;92745.28;;;17.33;74.03
15568;BME280;7885;42.596;23.044;2023-05-21T06:18:02;92749.69;;;17.43;73.74
15568;BME280;7885;42.596;23.044;2023-05-21T06:20:29;92744.84;;;17.47;74.76
15568;BME280;7885;42.596;23.044;2023-05-21T06:22:56;92754.75;;;17.44;74.33
15568;BME280;7885;42.596;23.044;2023-05-21T06:25:22;92751.34;;;17.40;74.80
15568;BME280;7885;42.596;23.044;2023-05-21T06:27:50;92750.31;;;17.34;75.35
15568;BME280;7885;42.596;23.044;2023-05-21T06:30:16;92739.56;;;17.27;75.20
15568;BME280;7885;42.596;23.044;2023-05-21T06:32:43;92732.19;;;17.24;76.33
15568;BME280;7885;42.596;23.044;2023-05-21T06:35:11;92749.88;;;17.48;75.91
15568;BME280;7885;42.596;23.044;2023-05-21T06:37:38;92751.22;;;17.56;74.51
15568;BME280;7885;42.596;23.044;2023-05-21T06:40:06;92744.53;;;17.57;74.88
15568;BME280;7885;42.596;23.044;2023-05-21T06:42:33;92743.84;;;17.66;75.60
15568;BME280;7885;42.596;23.044;2023-05-21T06:45:00;92744.63;;;17.66;74.20
15568;BME280;7885;42.596;23.044;2023-05-21T06:47:26;92745.50;;;17.63;75.02
15568;BME280;7885;42.596;23.044;2023-05-21T06:49:53;92746.69;;;17.75;74.86
15568;BME280;7885;42.596;23.044;2023-05-21T06:52:21;92739.53;;;17.78;74.23
15568;BME280;7885;42.596;23.044;2023-05-21T06:54:48;92734.34;;;17.80;73.81
15568;BME280;7885;42.596;23.044;2023-05-21T06:57:15;92715.00;;;17.71;74.19
15568;BME280;7885;42.596;23.044;2023-05-21T06:59:41;92711.59;;;17.66;73.57
15568;BME280;7885;42.596;23.044;2023-05-21T07:02:08;92737.31;;;17.73;73.26
15568;BME280;7885;42.596;23.044;2023-05-21T07:04:35;92734.69;;;17.82;73.74
15568;BME280;7885;42.596;23.044;2023-05-21T07:07:02;92730.19;;;17.75;72.81
15568;BME280;7885;42.596;23.044;2023-05-21T07:09:30;92732.47;;;17.77;72.48
15568;BME280;7885;42.596;23.044;2023-05-21T07:11:57;92732.00;;;17.91;73.47
15568;BME280;7885;42.596;23.044;2023-05-21T07:14:24;92734.94;;;17.96;73.17
15568;BME280;7885;42.596;23.044;2023-05-21T07:16:51;92731.66;;;18.01;72.49
15568;BME280;7885;42.596;23.044;2023-05-21T07:19:18;92736.66;;;18.15;70.85
15568;BME280;7885;42.596;23.044;2023-05-21T07:21:45;92738.41;;;18.22;69.65
15568;BME280;7885;42.596;23.044;2023-05-21T07:24:12;92728.09;;;18.35;70.48
15568;BME280;7885;42.596;23.044;2023-05-21T07:26:40;92732.91;;;18.44;70.01
15568;BME280;7885;42.596;23.044;2023-05-21T07:29:07;92724.97;;;18.46;68.90
15568;BME280;7885;42.596;23.044;2023-05-21T07:31:34;92722.41;;;18.51;67.46
15568;BME280;7885;42.596;23.044;2023-05-21T07:34:01;92715.56;;;18.56;65.89
15568;BME280;7885;42.596;23.044;2023-05-21T07:36:27;92731.25;;;18.46;65.18
15568;BME280;7885;42.596;23.044;2023-05-21T07:38:55;92727.94;;;18.51;61.76
15568;BME280;7885;42.596;23.044;2023-05-21T07:41:22;92714.47;;;18.53;62.13
15568;BME280;7885;42.596;23.044;2023-05-21T07:43:50;92734.25;;;18.83;64.45
15568;BME280;7885;42.596;23.044;2023-05-21T07:46:16;92723.06;;;19.08;64.54
15568;BME280;7885;42.596;23.044;2023-05-21T07:48:43;92723.69;;;19.12;63.55
15568;BME280;7885;42.596;23.044;2023-05-21T07:51:11;92741.59;;;19.38;61.77
15568;BME280;7885;42.596;23.044;2023-05-21T07:53:38;92733.53;;;19.53;62.56
15568;BME280;7885;42.596;23.044;2023-05-21T07:56:05;92737.28;;;19.68;62.03
15568;BME280;7885;42.596;23.044;2023-05-21T07:58:32;92736.09;;;19.96;62.55
15568;BME280;7885;42.596;23.044;2023-05-21T08:01:01;92736.16;;;20.24;61.55
15568;BME280;7885;42.596;23.044;2023-05-21T08:03:28;92734.72;;;20.10;59.30
15568;BME280;7885;42.596;23.044;2023-05-21T08:05:55;92730.03;;;20.29;58.79
15568;BME280;7885;42.596;23.044;2023-05-21T08:08:22;92733.56;;;20.38;58.44
15568;BME280;7885;42.596;23.044;2023-05-21T08:10:48;92735.41;;;20.41;59.11
15568;BME280;7885;42.596;23.044;2023-05-21T08:13:16;92732.66;;;20.50;59.50
15568;BME280;7885;42.596;23.044;2023-05-21T08:15:42;92716.81;;;20.51;57.63
15568;BME280;7885;42.596;23.044;2023-05-21T08:18:11;92734.78;;;20.64;55.99
15568;BME280;7885;42.596;23.044;2023-05-21T08:20:37;92726.78;;;20.48;55.62
15568;BME280;7885;42.596;23.044;2023-05-21T08:23:05;92736.00;;;20.73;55.61
15568;BME280;7885;42.596;23.044;2023-05-21T08:25:32;92734.44;;;20.90;55.67
15568;BME280;7885;42.596;23.044;2023-05-21T08:27:59;92745.78;;;21.10;56.03
15568;BME280;7885;42.596;23.044;2023-05-21T08:30:25;92736.56;;;21.13;55.01
15568;BME280;7885;42.596;23.044;2023-05-21T08:32:52;92737.81;;;21.03;54.59
15568;BME280;7885;42.596;23.044;2023-05-21T08:35:20;92737.16;;;21.08;54.03
15568;BME280;7885;42.596;23.044;2023-05-21T08:37:47;92746.38;;;21.23;52.33
15568;BME280;7885;42.596;23.044;2023-05-21T08:40:14;92739.50;;;20.91;50.77
15568;BME280;7885;42.596;23.044;2023-05-21T08:42:42;92740.28;;;20.83;53.78
15568;BME280;7885;42.596;23.044;2023-05-21T08:45:11;92750.16;;;20.75;55.50
15568;BME280;7885;42.596;23.044;2023-05-21T08:47:40;92745.22;;;20.42;54.84
15568;BME280;7885;42.596;23.044;2023-05-21T08:50:09;92750.91;;;20.39;54.07
15568;BME280;7885;42.596;23.044;2023-05-21T08:52:38;92755.03;;;20.16;52.91
15568;BME280;7885;42.596;23.044;2023-05-21T08:55:06;92754.66;;;19.87;53.48
15568;BME280;7885;42.596;23.044;2023-05-21T08:57:33;92747.28;;;19.75;54.28
15568;BME280;7885;42.596;23.044;2023-05-21T09:00:01;92740.50;;;19.66;55.03
15568;BME280;7885;42.596;23.044;2023-05-21T09:02:32;92748.53;;;19.92;55.70
15568;BME280;7885;42.596;23.044;2023-05-21T09:05:00;92744.56;;;20.02;55.45
15568;BME280;7885;42.596;23.044;2023-05-21T09:07:28;92754.09;;;20.19;54.89
15568;BME280;7885;42.596;23.044;2023-05-21T09:10:01;92755.94;;;20.22;55.50
15568;BME280;7885;42.596;23.044;2023-05-21T09:12:29;92738.75;;;20.09;54.48
15568;BME280;7885;42.596;23.044;2023-05-21T09:14:57;92754.84;;;20.10;53.84
15568;BME280;7885;42.596;23.044;2023-05-21T09:17:25;92744.25;;;20.09;54.03
15568;BME280;7885;42.596;23.044;2023-05-21T09:20:08;92753.53;;;20.33;55.30
15568;BME280;7885;42.596;23.044;2023-05-21T09:22:39;92751.97;;;20.41;55.29
15568;BME280;7885;42.596;23.044;2023-05-21T09:25:08;92759.03;;;20.51;54.90
15568;BME280;7885;42.596;23.044;2023-05-21T09:27:35;92753.84;;;20.53;54.92
15568;BME280;7885;42.596;23.044;2023-05-21T09:30:03;92746.63;;;20.65;54.87
15568;BME280;7885;42.596;23.044;2023-05-21T09:32:30;92749.81;;;20.82;55.54
15568;BME280;7885;42.596;23.044;2023-05-21T09:35:05;92741.09;;;20.65;53.19
15568;BME280;7885;42.596;23.044;2023-05-21T09:37:36;92754.13;;;20.74;54.06
15568;BME280;7885;42.596;23.044;2023-05-21T09:43:25;92745.19;;;20.24;53.62
15568;BME280;7885;42.596;23.044;2023-05-21T09:45:53;92749.34;;;20.20;52.04
15568;BME280;7885;42.596;23.044;2023-05-21T09:48:34;92748.16;;;20.30;53.87
15568;BME280;7885;42.596;23.044;2023-05-21T09:51:12;92747.50;;;20.26;53.71
15568;BME280;7885;42.596;23.044;2023-05-21T09:53:52;92752.44;;;20.31;53.18
15568;BME280;7885;42.596;23.044;2023-05-21T09:56:20;92743.69;;;20.32;53.88
15568;BME280;7885;42.596;23.044;2023-05-21T09:58:52;92740.94;;;20.32;53.62
15568;BME280;7885;42.596;23.044;2023-05-21T10:01:20;92746.72;;;20.25;54.07
15568;BME280;7885;42.596;23.044;2023-05-21T10:03:49;92751.00;;;20.17;54.04
15568;BME280;7885;42.596;23.044;2023-05-21T10:06:19;92756.25;;;20.24;54.53
15568;BME280;7885;42.596;23.044;2023-05-21T10:08:47;92739.22;;;20.16;55.42
15568;BME280;7885;42.596;23.044;2023-05-21T10:11:18;92748.56;;;20.19;52.45
15568;BME280;7885;42.596;23.044;2023-05-21T10:13:54;92752.09;;;20.10;50.11
15568;BME280;7885;42.596;23.044;2023-05-21T10:16:23;92743.31;;;19.94;50.87
15568;BME280;7885;42.596;23.044;2023-05-21T10:18:50;92750.09;;;20.02;51.06
15568;BME280;7885;42.596;23.044;2023-05-21T10:24:41;92747.63;;;20.04;49.88
15568;BME280;7885;42.596;23.044;2023-05-21T10:27:09;92747.03;;;20.09;50.49
15568;BME280;7885;42.596;23.044;2023-05-21T10:29:40;92744.59;;;20.20;48.22
15568;BME280;7885;42.596;23.044;2023-05-21T10:32:11;92741.09;;;20.29;47.88
15568;BME280;7885;42.596;23.044;2023-05-21T10:34:38;92737.88;;;20.30;47.73
15568;BME280;7885;42.596;23.044;2023-05-21T10:37:06;92738.47;;;20.52;48.03
15568;BME280;7885;42.596;23.044;2023-05-21T10:39:34;92738.63;;;20.67;46.37
15568;BME280;7885;42.596;23.044;2023-05-21T10:42:07;92734.75;;;20.83;47.60
15568;BME280;7885;42.596;23.044;2023-05-21T10:44:52;92740.88;;;21.05;46.35
15568;BME280;7885;42.596;23.044;2023-05-21T10:47:44;92729.47;;;21.21;45.26
15568;BME280;7885;42.596;23.044;2023-05-21T10:53:20;92727.34;;;21.58;45.50
15568;BME280;7885;42.596;23.044;2023-05-21T10:55:58;92718.63;;;21.41;44.51
15568;BME280;7885;42.596;23.044;2023-05-21T11:01:41;92722.13;;;21.51;44.54
15568;BME280;7885;42.596;23.044;2023-05-21T11:04:08;92730.66;;;21.71;45.05
15568;BME280;7885;42.596;23.044;2023-05-21T11:06:36;92724.09;;;21.92;44.96
15568;BME280;7885;42.596;23.044;2023-05-21T11:09:10;92721.34;;;22.31;45.90
15568;BME280;7885;42.596;23.044;2023-05-21T11:11:42;92729.44;;;22.43;44.93
15568;BME280;7885;42.596;23.044;2023-05-21T11:14:31;92718.63;;;22.45;43.23
15568;BME280;7885;42.596;23.044;2023-05-21T11:17:02;92716.81;;;22.42;43.60
15568;BME280;7885;42.596;23.044;2023-05-21T11:19:36;92713.41;;;22.47;43.92
15568;BME280;7885;42.596;23.044;2023-05-21T11:22:20;92707.63;;;22.75;42.81
15568;BME280;7885;42.596;23.044;2023-05-21T11:24:47;92705.63;;;22.90;45.59
15568;BME280;7885;42.596;23.044;2023-05-21T11:27:29;92707.63;;;22.75;43.37
15568;BME280;7885;42.596;23.044;2023-05-21T11:29:56;92709.00;;;22.55;44.17
15568;BME280;7885;42.596;23.044;2023-05-21T11:32:24;92692.81;;;22.39;45.37
15568;BME280;7885;42.596;23.044;2023-05-21T11:34:51;92702.63;;;22.26;44.89
15568;BME280;7885;42.596;23.044;2023-05-21T11:37:22;92698.22;;;21.86;45.83
15568;BME280;7885;42.596;23.044;2023-05-21T11:39:51;92709.97;;;21.81;46.30
15568;BME280;7885;42.596;23.044;2023-05-21T11:42:27;92715.31;;;21.61;46.92
15568;BME280;7885;42.596;23.044;2023-05-21T11:44:55;92706.09;;;21.55;47.24
15568;BME280;7885;42.596;23.044;2023-05-21T11:47:25;92698.69;;;21.61;47.08
15568;BME280;7885;42.596;23.044;2023-05-21T11:49:52;92689.66;;;21.51;47.33
15568;BME280;7885;42.596;23.044;2023-05-21T11:52:19;92677.72;;;21.69;48.20
15568;BME280;7885;42.596;23.044;2023-05-21T11:54:47;92695.94;;;21.85;46.60
15568;BME280;7885;42.596;23.044;2023-05-21T11:57:15;92683.00;;;22.14;47.27
15568;BME280;7885;42.596;23.044;2023-05-21T11:59:43;92687.91;;;22.34;47.51
15568;BME280;7885;42.596;23.044;2023-05-21T12:02:13;92682.38;;;22.34;45.82
15568;BME280;7885;42.596;23.044;2023-05-21T12:04:44;92676.63;;;22.23;47.50
15568;BME280;7885;42.596;23.044;2023-05-21T12:07:12;92684.75;;;22.27;49.03
15568;BME280;7885;42.596;23.044;2023-05-21T12:09:40;92683.16;;;22.11;49.50
15568;BME280;7885;42.596;23.044;2023-05-21T12:12:07;92666.97;;;21.95;47.64
15568;BME280;7885;42.596;23.044;2023-05-21T12:14:34;92673.19;;;21.81;47.72
15568;BME280;7885;42.596;23.044;2023-05-21T12:17:02;92678.47;;;21.70;48.42
15568;BME280;7885;42.596;23.044;2023-05-21T12:19:31;92680.13;;;21.52;49.20
15568;BME280;7885;42.596;23.044;2023-05-21T12:22:01;92674.66;;;21.34;50.43
15568;BME280;7885;42.596;23.044;2023-05-21T12:24:28;92672.59;;;21.20;50.26
15568;BME280;7885;42.596;23.044;2023-05-21T12:26:56;92668.31;;;21.10;50.39
15568;BME280;7885;42.596;23.044;2023-05-21T12:29:24;92678.75;;;21.06;50.69
15568;BME280;7885;42.596;23.044;2023-05-21T12:31:51;92676.31;;;20.99;50.42
15568;BME280;7885;42.596;23.044;2023-05-21T12:34:36;92671.13;;;20.92;49.92
15568;BME280;7885;42.596;23.044;2023-05-21T12:37:05;92671.88;;;20.92;51.12
15568;BME280;7885;42.596;23.044;2023-05-21T12:39:32;92674.50;;;20.87;51.41
15568;BME280;7885;42.596;23.044;2023-05-21T12:42:03;92673.56;;;20.90;52.04
15568;BME280;7885;42.596;23.044;2023-05-21T12:44:30;92667.44;;;20.86;51.42
15568;BME280;7885;42.596;23.044;2023-05-21T12:46:57;92671.88;;;20.92;52.05
15568;BME280;7885;42.596;23.044;2023-05-21T12:49:32;92672.91;;;21.04;52.16
15568;BME280;7885;42.596;23.044;2023-05-21T12:52:01;92670.72;;;21.17;52.08
15568;BME280;7885;42.596;23.044;2023-05-21T12:54:31;92670.38;;;21.33;52.44
15568;BME280;7885;42.596;23.044;2023-05-21T12:57:05;92665.03;;;21.53;52.24
15568;BME280;7885;42.596;23.044;2023-05-21T12:59:48;92664.94;;;21.72;52.12
15568;BME280;7885;42.596;23.044;2023-05-21T13:02:18;92648.53;;;21.83;51.79
15568;BME280;7885;42.596;23.044;2023-05-21T13:04:46;92662.53;;;22.12;51.56
15568;BME280;7885;42.596;23.044;2023-05-21T13:07:13;92651.59;;;22.32;50.17
15568;BME280;7885;42.596;23.044;2023-05-21T13:09:41;92659.16;;;22.46;51.32
15568;BME280;7885;42.596;23.044;2023-05-21T13:12:08;92656.22;;;22.64;49.25
15568;BME280;7885;42.596;23.044;2023-05-21T13:14:35;92656.06;;;22.97;50.18
15568;BME280;7885;42.596;23.044;2023-05-21T13:17:02;92646.75;;;23.15;49.68
15568;BME280;7885;42.596;23.044;2023-05-21T13:19:28;92647.78;;;23.32;48.63
15568;BME280;7885;42.596;23.044;2023-05-21T13:21:55;92659.22;;;23.20;49.16